createdAt,value
2023-05-11T00:02:19.320Z,45.05
2023-05-11T00:04:48.635Z,37.50
2023-05-11T00:07:16.515Z,57.55
2023-05-11T00:09:44.524Z,60.65
2023-05-11T00:12:13.349Z,42.80
2023-05-11T00:14:41.449Z,45.53
2023-05-11T00:17:09.312Z,41.78
2023-05-11T00:19:37.253Z,43.50
2023-05-11T00:22:06.427Z,44.88
2023-05-11T00:24:34.281Z,42.42
2023-05-11T00:27:02.203Z,44.97
2023-05-11T00:29:30.116Z,44.53
2023-05-11T00:31:58.101Z,41.10
2023-05-11T00:34:25.991Z,62.08
2023-05-11T00:36:53.960Z,37.63
2023-05-11T00:39:23.271Z,51.63
2023-05-11T00:41:51.186Z,40.75
2023-05-11T00:44:19.071Z,58.75
2023-05-11T00:46:46.992Z,53.78
2023-05-11T00:49:17.336Z,62.47
2023-05-11T00:51:45.332Z,43.30
2023-05-11T00:54:15.636Z,79.10
2023-05-11T00:56:45.091Z,72.53
2023-05-11T00:59:14.106Z,56.28
2023-05-11T01:01:42.091Z,59.03
2023-05-11T01:04:10.683Z,45.15
2023-05-11T01:06:46.738Z,59.38
2023-05-11T01:09:25.581Z,65.50
2023-05-11T01:12:01.643Z,84.80
2023-05-11T01:14:40.513Z,46.40
2023-05-11T01:17:13.213Z,47.47
2023-05-11T01:19:44.496Z,78.45
2023-05-11T01:22:27.111Z,55.20
2023-05-11T01:27:58.447Z,49.60
2023-05-11T01:30:30.775Z,109.50
2023-05-11T01:33:04.510Z,51.70
2023-05-11T01:35:34.265Z,46.47
2023-05-11T01:38:05.312Z,72.47
2023-05-11T01:40:37.149Z,48.28
2023-05-11T01:43:09.278Z,112.85
2023-05-11T01:45:44.935Z,46.42
2023-05-11T01:48:15.684Z,71.20
2023-05-11T01:50:44.105Z,59.45
2023-05-11T01:53:13.379Z,95.10
2023-05-11T01:55:42.919Z,84.60
2023-05-11T01:58:12.080Z,92.00
2023-05-11T02:00:42.125Z,114.95
2023-05-11T02:03:11.164Z,75.22
2023-05-11T02:05:40.843Z,72.60
2023-05-11T02:08:09.752Z,84.45
2023-05-11T02:10:39.883Z,74.50
2023-05-11T02:13:09.915Z,51.85
2023-05-11T02:15:41.462Z,88.35
2023-05-11T02:18:15.258Z,81.47
2023-05-11T02:20:46.030Z,81.32
2023-05-11T02:23:14.960Z,73.65
2023-05-11T02:25:44.034Z,55.80
2023-05-11T02:28:11.999Z,47.92
2023-05-11T02:30:45.748Z,57.70
2023-05-11T02:33:21.480Z,71.00
2023-05-11T02:35:52.178Z,66.72
2023-05-11T02:38:21.170Z,57.45
2023-05-11T02:40:52.628Z,52.10
2023-05-11T02:43:34.838Z,60.60
2023-05-11T02:46:07.551Z,44.10
2023-05-11T02:49:02.965Z,44.90
2023-05-11T02:51:35.943Z,42.28
2023-05-11T02:54:07.222Z,41.10
2023-05-11T02:56:35.686Z,42.78
2023-05-11T02:59:04.198Z,47.75
2023-05-11T03:01:32.327Z,54.13
2023-05-11T03:04:04.732Z,57.28
2023-05-11T03:06:33.298Z,49.00
2023-05-11T03:09:02.252Z,44.15
2023-05-11T03:11:30.274Z,40.65
2023-05-11T03:13:58.884Z,58.72
2023-05-11T03:16:27.960Z,59.10
2023-05-11T03:18:56.659Z,46.92
2023-05-11T03:21:28.557Z,38.30
2023-05-11T03:23:58.194Z,42.85
2023-05-11T03:26:30.060Z,38.63
2023-05-11T03:29:00.260Z,40.97
2023-05-11T03:31:28.245Z,45.80
2023-05-11T03:33:56.343Z,47.17
2023-05-11T03:36:27.816Z,38.15
2023-05-11T03:38:57.572Z,45.08
2023-05-11T03:41:29.080Z,41.60
2023-05-11T03:44:00.300Z,45.17
2023-05-11T03:46:29.779Z,49.33
2023-05-11T03:49:02.409Z,45.92
2023-05-11T03:53:59.942Z,39.70
2023-05-11T03:56:28.035Z,42.40
2023-05-11T03:58:56.072Z,42.53
2023-05-11T04:01:24.240Z,44.33
2023-05-11T04:03:53.540Z,45.75
2023-05-11T04:06:21.637Z,47.25
2023-05-11T04:08:51.050Z,45.03
2023-05-11T04:11:18.850Z,46.80
2023-05-11T04:13:47.462Z,53.80
2023-05-11T04:16:15.269Z,48.80
2023-05-11T04:18:43.146Z,54.60
2023-05-11T04:21:11.188Z,58.20
2023-05-11T04:23:39.334Z,56.70
2023-05-11T04:26:08.940Z,64.72
2023-05-11T04:28:36.900Z,70.07
2023-05-11T04:31:04.875Z,88.40
2023-05-11T04:33:32.726Z,79.45
2023-05-11T04:36:00.582Z,75.70
2023-05-11T04:38:28.431Z,76.03
2023-05-11T04:40:56.193Z,88.38
2023-05-11T04:43:25.406Z,105.65
2023-05-11T04:45:53.114Z,84.15
2023-05-11T04:48:21.174Z,94.63
2023-05-11T04:50:48.944Z,72.00
2023-05-11T04:53:16.852Z,66.38
2023-05-11T04:55:44.649Z,47.53
2023-05-11T04:58:12.634Z,58.25
2023-05-11T05:00:41.971Z,67.95
2023-05-11T05:03:09.807Z,74.00
2023-05-11T05:05:37.909Z,71.13
2023-05-11T05:08:05.895Z,74.10
2023-05-11T05:10:33.827Z,47.60
2023-05-11T05:13:01.670Z,61.03
2023-05-11T05:15:29.628Z,64.75
2023-05-11T05:17:58.962Z,54.80
2023-05-11T05:20:27.445Z,55.97
2023-05-11T05:22:55.242Z,56.78
2023-05-11T05:25:23.336Z,64.53
2023-05-11T05:27:51.038Z,49.97
2023-05-11T05:30:19.020Z,54.88
2023-05-11T05:32:46.927Z,48.55
2023-05-11T05:35:16.168Z,60.97
2023-05-11T05:37:43.890Z,62.72
2023-05-11T05:40:12.281Z,56.10
2023-05-11T05:42:40.172Z,61.92
2023-05-11T05:45:09.184Z,60.80
2023-05-11T05:47:37.237Z,56.47
2023-05-11T05:50:05.982Z,44.22
2023-05-11T05:52:35.486Z,43.20
2023-05-11T05:55:03.264Z,53.90
2023-05-11T05:57:31.299Z,46.40
2023-05-11T05:59:59.113Z,40.85
2023-05-11T06:02:26.939Z,36.88
2023-05-11T06:04:54.832Z,44.22
2023-05-11T06:07:22.620Z,51.90
2023-05-11T06:09:51.869Z,63.03
2023-05-11T06:12:19.541Z,51.70
2023-05-11T06:14:47.259Z,72.85
2023-05-11T06:17:14.955Z,62.22
2023-05-11T06:19:42.733Z,58.08
2023-05-11T06:22:10.442Z,65.90
2023-05-11T06:24:38.188Z,68.82
2023-05-11T06:27:07.375Z,50.85
2023-05-11T06:29:35.140Z,61.75
2023-05-11T06:32:02.984Z,62.55
2023-05-11T06:34:30.874Z,53.67
2023-05-11T06:37:00.222Z,64.63
2023-05-11T06:39:27.963Z,44.42
2023-05-11T06:41:57.075Z,47.28
2023-05-11T06:44:27.905Z,72.95
2023-05-11T06:46:55.633Z,51.97
2023-05-11T06:49:23.403Z,54.53
2023-05-11T06:51:51.197Z,53.08
2023-05-11T06:54:19.016Z,58.10
2023-05-11T06:56:46.803Z,50.38
2023-05-11T06:59:14.660Z,68.22
2023-05-11T07:01:44.189Z,54.55
2023-05-11T07:04:11.976Z,65.38
2023-05-11T07:06:39.802Z,58.08
2023-05-11T07:09:08.019Z,60.35
2023-05-11T07:11:38.098Z,63.38
2023-05-11T07:14:05.926Z,49.67
2023-05-11T07:16:37.855Z,47.28
2023-05-11T07:19:08.243Z,46.97
2023-05-11T07:21:36.334Z,54.22
2023-05-11T07:24:04.300Z,51.63
2023-05-11T07:26:32.203Z,47.70
2023-05-11T07:28:59.944Z,52.35
2023-05-11T07:31:29.975Z,52.10
2023-05-11T07:33:57.748Z,48.13
2023-05-11T07:36:26.963Z,49.17
2023-05-11T07:38:54.759Z,43.08
2023-05-11T07:41:26.126Z,39.05
2023-05-11T07:43:53.975Z,33.95
2023-05-11T07:46:21.810Z,38.13
2023-05-11T07:48:51.672Z,41.35
2023-05-11T07:51:26.815Z,35.30
2023-05-11T07:53:54.588Z,41.58
2023-05-11T07:56:22.334Z,35.83
2023-05-11T07:58:50.192Z,35.92
2023-05-11T08:01:17.971Z,34.35
2023-05-11T08:03:45.730Z,30.92
2023-05-11T08:06:13.530Z,33.67
2023-05-11T08:08:42.875Z,29.33
2023-05-11T08:11:10.949Z,33.40
2023-05-11T08:13:38.717Z,35.50
2023-05-11T08:16:07.742Z,30.63
2023-05-11T08:18:35.782Z,34.58
2023-05-11T08:21:03.681Z,33.40
2023-05-11T08:23:31.744Z,30.95
2023-05-11T08:26:01.203Z,38.08
2023-05-11T08:28:28.950Z,35.85
2023-05-11T08:30:57.574Z,38.58
2023-05-11T08:33:37.474Z,41.78
2023-05-11T08:36:07.459Z,42.15
2023-05-11T08:38:36.508Z,36.97
2023-05-11T08:41:07.663Z,40.33
2023-05-11T08:43:36.872Z,41.05
2023-05-11T08:46:07.364Z,35.70
2023-05-11T08:48:35.492Z,38.30
2023-05-11T08:51:04.245Z,33.60
2023-05-11T08:53:32.677Z,38.75
2023-05-11T08:56:02.384Z,34.65
2023-05-11T08:58:33.089Z,43.63
2023-05-11T09:01:00.929Z,40.38
2023-05-11T09:03:31.245Z,36.70
2023-05-11T09:06:01.149Z,35.33
2023-05-11T09:08:32.336Z,34.65
2023-05-11T09:11:00.946Z,36.97
2023-05-11T09:13:28.726Z,35.45
2023-05-11T09:15:57.876Z,37.65
2023-05-11T09:18:25.822Z,37.75
2023-05-11T09:20:53.576Z,37.90
2023-05-11T09:23:25.973Z,36.90
2023-05-11T09:28:26.940Z,33.88
2023-05-11T09:30:55.287Z,34.67
2023-05-11T09:33:26.105Z,37.25
2023-05-11T09:35:54.543Z,35.60
2023-05-11T09:38:23.208Z,36.17
2023-05-11T09:40:53.333Z,37.15
2023-05-11T09:43:22.998Z,34.50
2023-05-11T09:45:52.536Z,36.00
2023-05-11T09:48:30.098Z,35.03
2023-05-11T09:51:03.803Z,30.13
2023-05-11T09:53:43.901Z,32.30
2023-05-11T09:56:12.371Z,34.13
2023-05-11T09:58:48.339Z,30.20
2023-05-11T10:01:16.579Z,34.60
2023-05-11T10:03:50.373Z,34.13
2023-05-11T10:06:20.451Z,31.10
2023-05-11T10:08:49.053Z,32.20
2023-05-11T10:11:16.925Z,36.08
2023-05-11T10:13:45.970Z,31.25
2023-05-11T10:16:17.157Z,33.92
2023-05-11T10:18:45.944Z,38.83
2023-05-11T10:21:16.583Z,35.58
2023-05-11T10:23:44.661Z,33.78
2023-05-11T10:26:13.037Z,35.88
2023-05-11T10:28:41.327Z,37.65
2023-05-11T10:31:11.426Z,34.47
2023-05-11T10:33:40.009Z,33.50
2023-05-11T10:36:10.142Z,35.25
2023-05-11T10:38:39.689Z,36.33
2023-05-11T10:41:21.761Z,36.60
2023-05-11T10:44:12.816Z,33.50
2023-05-11T10:46:55.594Z,34.47
2023-05-11T10:49:39.258Z,33.30
2023-05-11T10:52:22.070Z,39.33
2023-05-11T10:55:06.795Z,35.00
2023-05-11T10:57:44.684Z,31.80
2023-05-11T11:00:52.625Z,34.95
2023-05-11T11:03:20.684Z,35.40
2023-05-11T11:05:48.647Z,35.55
2023-05-11T11:08:16.634Z,33.85
2023-05-11T11:10:46.750Z,36.35
2023-05-11T11:13:16.957Z,36.72
2023-05-11T11:16:14.753Z,34.00
2023-05-11T11:18:44.202Z,33.60
2023-05-11T11:21:15.647Z,40.35
2023-05-11T11:23:45.548Z,32.17
2023-05-11T11:26:16.547Z,31.50
2023-05-11T11:29:09.671Z,34.35
2023-05-11T11:31:38.516Z,29.13
2023-05-11T11:34:37.378Z,33.45
2023-05-11T11:37:06.129Z,30.05
2023-05-11T11:40:13.014Z,31.30
2023-05-11T11:42:44.387Z,29.63
2023-05-11T11:45:33.218Z,32.03
2023-05-11T11:48:09.176Z,34.90
2023-05-11T11:50:37.186Z,29.58
2023-05-11T11:53:05.533Z,33.30
2023-05-11T11:55:47.250Z,27.63
2023-05-11T11:58:59.272Z,34.00
2023-05-11T12:01:28.289Z,33.03
2023-05-11T12:04:24.977Z,32.22
2023-05-11T12:06:58.062Z,29.67
2023-05-11T12:09:26.575Z,30.13
2023-05-11T12:11:54.708Z,28.02
2023-05-11T12:14:24.718Z,29.60
2023-05-11T12:17:13.554Z,25.48
2023-05-11T12:19:43.198Z,27.60
2023-05-11T12:22:13.965Z,26.30
2023-05-11T12:24:42.383Z,28.92
2023-05-11T12:27:10.444Z,26.70
2023-05-11T12:29:40.853Z,28.13
2023-05-11T12:32:13.594Z,26.58
2023-05-11T12:34:41.659Z,30.88
2023-05-11T12:37:09.730Z,27.70
2023-05-11T12:39:37.774Z,32.05
2023-05-11T12:42:06.195Z,30.85
2023-05-11T12:44:36.709Z,35.20
2023-05-11T12:47:14.318Z,33.42
2023-05-11T12:49:43.661Z,33.05
2023-05-11T12:52:12.425Z,31.63
2023-05-11T12:54:41.817Z,31.35
2023-05-11T12:57:24.122Z,31.02
2023-05-11T13:00:08.133Z,31.58
2023-05-11T13:02:44.675Z,30.52
2023-05-11T13:05:14.353Z,28.83
2023-05-11T13:07:44.056Z,29.60
2023-05-11T13:10:13.721Z,27.42
2023-05-11T13:12:51.886Z,28.80
2023-05-11T13:15:21.850Z,30.25
2023-05-11T13:17:58.581Z,30.02
2023-05-11T13:20:27.930Z,32.97
2023-05-11T13:23:05.750Z,30.08
2023-05-11T13:25:34.816Z,31.45
2023-05-11T13:28:03.079Z,31.80
2023-05-11T13:30:32.800Z,31.08
2023-05-11T13:33:04.046Z,33.17
2023-05-11T13:35:32.158Z,30.33
2023-05-11T13:38:00.266Z,32.65
2023-05-11T13:40:28.194Z,29.05
2023-05-11T13:42:56.855Z,26.33
2023-05-11T13:45:24.986Z,26.98
2023-05-11T13:47:53.073Z,26.30
2023-05-11T13:50:22.910Z,27.25
2023-05-11T13:52:52.176Z,24.60
2023-05-11T13:55:20.425Z,23.65
2023-05-11T13:57:48.855Z,23.92
2023-05-11T14:00:17.725Z,25.58
2023-05-11T14:02:54.596Z,24.60
2023-05-11T14:05:23.837Z,25.15
2023-05-11T14:07:51.694Z,25.17
2023-05-11T14:10:21.791Z,23.77
2023-05-11T14:12:49.581Z,22.40
2023-05-11T14:15:20.860Z,20.85
2023-05-11T14:17:49.185Z,21.38
2023-05-11T14:20:17.171Z,17.35
2023-05-11T14:22:46.807Z,18.38
2023-05-11T14:25:14.809Z,16.48
2023-05-11T14:27:44.877Z,16.33
2023-05-11T14:30:13.307Z,14.75
2023-05-11T14:32:41.142Z,14.25
2023-05-11T14:35:09.469Z,16.25
2023-05-11T14:37:37.895Z,11.32
2023-05-11T14:40:08.450Z,7.75
2023-05-11T14:42:36.461Z,9.73
2023-05-11T14:45:04.456Z,9.02
2023-05-11T14:47:32.431Z,10.10
2023-05-11T14:50:00.422Z,7.72
2023-05-11T14:52:30.367Z,6.35
2023-05-11T14:54:58.129Z,6.90
2023-05-11T14:57:27.409Z,9.32
2023-05-11T15:00:00.217Z,7.63
2023-05-11T15:02:28.689Z,7.10
2023-05-11T15:04:56.507Z,5.20
2023-05-11T15:07:24.190Z,3.75
2023-05-11T15:09:52.041Z,4.32
2023-05-11T15:12:19.784Z,4.60
2023-05-11T15:14:49.074Z,4.97
2023-05-11T15:17:16.798Z,4.85
2023-05-11T15:19:44.537Z,4.63
2023-05-11T15:22:17.514Z,5.57
2023-05-11T15:24:45.501Z,5.47
2023-05-11T15:27:13.576Z,5.32
2023-05-11T15:29:41.500Z,16.33
2023-05-11T15:32:14.242Z,6.80
2023-05-11T15:34:55.479Z,4.90
2023-05-11T15:37:26.764Z,5.45
2023-05-11T15:39:54.548Z,6.07
2023-05-11T15:42:22.255Z,4.68
2023-05-11T15:44:49.971Z,5.30
2023-05-11T15:47:19.061Z,5.55
2023-05-11T15:49:46.828Z,5.22
2023-05-11T15:52:14.562Z,5.93
2023-05-11T15:54:42.378Z,5.18
2023-05-11T15:57:10.256Z,4.65
2023-05-11T15:59:38.647Z,5.13
2023-05-11T16:02:06.498Z,6.75
2023-05-11T16:04:35.894Z,5.05
2023-05-11T16:07:04.422Z,5.05
2023-05-11T16:09:32.201Z,5.43
2023-05-11T16:12:00.077Z,5.43
2023-05-11T16:14:27.889Z,5.97
2023-05-11T16:16:59.372Z,6.15
2023-05-11T16:19:27.378Z,7.90
2023-05-11T16:21:56.685Z,6.15
2023-05-11T16:24:24.463Z,7.03
2023-05-11T16:26:52.288Z,6.00
2023-05-11T16:29:20.030Z,6.20
2023-05-11T16:31:48.096Z,7.95
2023-05-11T16:34:15.862Z,5.75
2023-05-11T16:36:43.642Z,5.35
2023-05-11T16:39:13.028Z,5.85
2023-05-11T16:41:40.902Z,5.95
2023-05-11T16:44:08.712Z,6.85
2023-05-11T16:46:36.843Z,6.97
2023-05-11T16:49:04.562Z,6.32
2023-05-11T16:51:33.890Z,8.10
2023-05-11T16:54:01.581Z,7.70
2023-05-11T16:56:30.753Z,6.40
2023-05-11T16:58:58.462Z,6.78
2023-05-11T17:01:26.213Z,6.55
2023-05-11T17:03:54.054Z,9.63
2023-05-11T17:06:23.862Z,6.10
2023-05-11T17:08:53.613Z,6.28
2023-05-11T17:11:21.487Z,6.68
2023-05-11T17:13:57.304Z,6.28
2023-05-11T17:16:25.313Z,7.43
2023-05-11T17:18:59.284Z,31.40
2023-05-11T17:21:27.288Z,12.90
2023-05-11T17:23:58.361Z,5.70
2023-05-11T17:26:32.592Z,4.50
2023-05-11T17:29:13.177Z,4.07
2023-05-11T17:31:42.133Z,3.92
2023-05-11T17:34:10.404Z,4.82
2023-05-11T17:36:38.917Z,5.47
2023-05-11T17:39:06.635Z,5.10
2023-05-11T17:41:34.408Z,3.95
2023-05-11T17:44:02.045Z,5.13
2023-05-11T17:46:37.477Z,5.00
2023-05-11T17:49:06.403Z,4.65
2023-05-11T17:51:34.219Z,5.07
2023-05-11T17:54:01.964Z,4.93
2023-05-11T17:56:29.772Z,5.53
2023-05-11T17:58:57.497Z,5.97
2023-05-11T18:01:27.338Z,5.40
2023-05-11T18:03:58.354Z,6.28
2023-05-11T18:06:27.037Z,6.90
2023-05-11T18:08:54.888Z,7.53
2023-05-11T18:11:22.976Z,6.40
2023-05-11T18:13:50.952Z,6.40
2023-05-11T18:16:18.838Z,7.13
2023-05-11T18:18:46.678Z,6.93
2023-05-11T18:21:19.113Z,7.95
2023-05-11T18:26:14.764Z,7.25
2023-05-11T18:28:42.612Z,7.10
2023-05-11T18:31:10.346Z,9.10
2023-05-11T18:33:38.251Z,7.07
2023-05-11T18:36:06.591Z,6.55
2023-05-11T18:38:35.840Z,9.27
2023-05-11T18:41:05.659Z,7.78
2023-05-11T18:43:34.285Z,6.68
2023-05-11T18:46:02.072Z,7.35
2023-05-11T18:48:29.770Z,7.13
2023-05-11T18:50:57.820Z,6.90
2023-05-11T18:53:25.611Z,7.05
2023-05-11T18:55:54.859Z,7.85
2023-05-11T18:58:23.556Z,7.53
2023-05-11T19:00:52.342Z,7.30
2023-05-11T19:03:22.133Z,7.78
2023-05-11T19:05:50.605Z,7.20
2023-05-11T19:08:18.593Z,6.45
2023-05-11T19:10:47.956Z,8.85
2023-05-11T19:13:17.144Z,7.07
2023-05-11T19:15:45.010Z,6.82
2023-05-11T19:18:12.853Z,7.57
2023-05-11T19:20:40.727Z,8.70
2023-05-11T19:23:08.487Z,10.80
2023-05-11T19:25:36.683Z,9.65
2023-05-11T19:28:04.540Z,10.05
2023-05-11T19:30:33.783Z,11.95
2023-05-11T19:33:01.669Z,16.20
2023-05-11T19:35:29.983Z,12.70
2023-05-11T19:37:57.864Z,12.18
2023-05-11T19:40:45.178Z,11.20
2023-05-11T19:43:13.990Z,12.60
2023-05-11T19:45:44.124Z,16.17
2023-05-11T19:48:12.065Z,13.05
2023-05-11T19:50:39.862Z,11.95
2023-05-11T19:53:07.801Z,16.50
2023-05-11T19:55:38.100Z,13.13
2023-05-11T19:58:06.901Z,14.52
2023-05-11T20:00:34.889Z,16.23
2023-05-11T20:03:04.675Z,13.57
2023-05-11T20:05:32.642Z,13.48
2023-05-11T20:08:01.289Z,15.05
2023-05-11T20:10:29.257Z,18.38
2023-05-11T20:12:58.137Z,16.27
2023-05-11T20:15:26.360Z,18.60
2023-05-11T20:17:54.280Z,17.90
2023-05-11T20:20:23.968Z,17.00
2023-05-11T20:22:52.059Z,18.08
2023-05-11T20:25:20.030Z,16.73
2023-05-11T20:27:47.942Z,16.65
2023-05-11T20:30:16.527Z,17.13
2023-05-11T20:35:15.611Z,19.70
2023-05-11T20:37:44.911Z,17.35
2023-05-11T20:40:13.987Z,18.60
2023-05-11T20:42:41.918Z,18.35
2023-05-11T20:45:10.727Z,17.30
2023-05-11T20:47:38.817Z,19.50
2023-05-11T20:50:08.483Z,17.83
2023-05-11T20:52:36.749Z,18.90
2023-05-11T20:55:07.186Z,18.67
2023-05-11T20:57:35.291Z,21.63
2023-05-11T21:00:05.527Z,21.60
2023-05-11T21:02:33.455Z,24.63
2023-05-11T21:05:02.730Z,23.25
2023-05-11T21:07:30.948Z,23.10
2023-05-11T21:09:58.859Z,24.10
2023-05-11T21:12:28.372Z,30.65
2023-05-11T21:14:57.162Z,23.00
2023-05-11T21:17:40.810Z,38.65
2023-05-11T21:20:50.239Z,23.10
2023-05-11T21:23:48.897Z,27.23
2023-05-11T21:26:38.802Z,27.63
2023-05-11T21:29:21.096Z,23.65
2023-05-11T21:32:02.257Z,33.33
2023-05-11T21:34:58.190Z,26.75
2023-05-11T21:37:36.678Z,30.50
2023-05-11T21:40:17.641Z,22.02
2023-05-11T21:42:46.406Z,28.55
2023-05-11T21:45:34.538Z,30.88
2023-05-11T21:48:02.597Z,32.10
2023-05-11T21:50:30.769Z,23.77
2023-05-11T21:52:59.210Z,30.90
2023-05-11T21:55:27.287Z,27.25
2023-05-11T21:57:55.735Z,25.85
2023-05-11T22:00:24.344Z,41.50
2023-05-11T22:02:54.129Z,31.17
2023-05-11T22:05:22.639Z,28.50
2023-05-11T22:07:53.931Z,27.23
2023-05-11T22:10:24.578Z,30.95
2023-05-11T22:12:53.145Z,41.13
2023-05-11T22:15:22.687Z,31.77
2023-05-11T22:17:50.955Z,33.35
2023-05-11T22:20:20.918Z,30.05
2023-05-11T22:22:49.050Z,34.55
2023-05-11T22:25:17.230Z,43.17
2023-05-11T22:27:45.422Z,36.97
2023-05-11T22:30:14.016Z,34.97
2023-05-11T22:32:42.188Z,33.22
2023-05-11T22:35:11.016Z,35.67
2023-05-11T22:37:40.855Z,30.55
2023-05-11T22:40:10.082Z,31.80
2023-05-11T22:42:38.398Z,47.58
2023-05-11T22:45:07.664Z,34.25
2023-05-11T22:47:35.848Z,32.47
2023-05-11T22:50:04.403Z,27.98
2023-05-11T22:52:32.468Z,30.45
2023-05-11T22:55:01.891Z,29.65
2023-05-11T22:57:29.994Z,28.73
2023-05-11T22:59:58.458Z,26.20
2023-05-11T23:02:26.504Z,27.15
2023-05-11T23:04:54.600Z,26.65
2023-05-11T23:07:22.746Z,28.13
2023-05-11T23:09:52.590Z,25.70
2023-05-11T23:12:22.806Z,25.52
2023-05-11T23:14:51.185Z,27.38
2023-05-11T23:17:19.686Z,25.67
2023-05-11T23:19:48.151Z,26.33
2023-05-11T23:22:16.616Z,29.52
2023-05-11T23:24:44.823Z,23.30
2023-05-11T23:27:13.173Z,25.48
2023-05-11T23:29:42.850Z,25.27
2023-05-11T23:32:10.899Z,23.58
2023-05-11T23:34:39.158Z,22.88
2023-05-11T23:37:07.460Z,26.58
2023-05-11T23:39:35.474Z,20.15
2023-05-11T23:42:04.318Z,21.58
2023-05-11T23:44:32.274Z,19.00
2023-05-11T23:47:01.851Z,18.55
2023-05-11T23:49:30.372Z,24.48
2023-05-11T23:51:58.712Z,17.55
2023-05-11T23:54:26.691Z,20.60
2023-05-11T23:56:54.643Z,18.70
2023-05-11T23:59:22.530Z,15.73
